sensor_id;sensor_type;location;lat;lon;timestamp;P1;durP1;ratioP1;P2;durP2;ratioP2
10641;SDS011;5369;49.586;8.646;2022-08-27T00:00:20;14.87;;;13.37;;
10641;SDS011;5369;49.586;8.646;2022-08-27T00:02:47;16.07;;;14.37;;
10641;SDS011;5369;49.586;8.646;2022-08-27T00:05:14;15.70;;;14.17;;
10641;SDS011;5369;49.586;8.646;2022-08-27T00:07:40;15.60;;;14.00;;
10641;SDS011;5369;49.586;8.646;2022-08-27T00:10:08;16.30;;;14.60;;
10641;SDS011;5369;49.586;8.646;2022-08-27T00:12:34;16.47;;;14.67;;
10641;SDS011;5369;49.586;8.646;2022-08-27T00:15:01;17.27;;;15.65;;
10641;SDS011;5369;49.586;8.646;2022-08-27T00:17:27;17.50;;;15.90;;
10641;SDS011;5369;49.586;8.646;2022-08-27T00:19:53;16.53;;;14.93;;
10641;SDS011;5369;49.586;8.646;2022-08-27T00:22:19;15.13;;;13.67;;
10641;SDS011;5369;49.586;8.646;2022-08-27T00:24:46;14.83;;;13.37;;
10641;SDS011;5369;49.586;8.646;2022-08-27T00:27:12;13.43;;;12.13;;
10641;SDS011;5369;49.586;8.646;2022-08-27T00:29:38;15.23;;;13.77;;
10641;SDS011;5369;49.586;8.646;2022-08-27T00:32:05;13.77;;;12.30;;
10641;SDS011;5369;49.586;8.646;2022-08-27T00:34:33;14.17;;;12.37;;
10641;SDS011;5369;49.586;8.646;2022-08-27T00:37:00;13.60;;;12.20;;
10641;SDS011;5369;49.586;8.646;2022-08-27T00:39:27;12.83;;;11.63;;
10641;SDS011;5369;49.586;8.646;2022-08-27T00:41:54;12.37;;;10.90;;
10641;SDS011;5369;49.586;8.646;2022-08-27T00:44:20;12.37;;;11.27;;
10641;SDS011;5369;49.586;8.646;2022-08-27T00:46:47;12.77;;;11.63;;
10641;SDS011;5369;49.586;8.646;2022-08-27T00:49:28;12.90;;;11.53;;
10641;SDS011;5369;49.586;8.646;2022-08-27T00:52:00;11.87;;;10.63;;
10641;SDS011;5369;49.586;8.646;2022-08-27T00:54:28;12.13;;;10.83;;
10641;SDS011;5369;49.586;8.646;2022-08-27T00:56:54;13.90;;;11.50;;
10641;SDS011;5369;49.586;8.646;2022-08-27T00:59:22;13.40;;;11.77;;
10641;SDS011;5369;49.586;8.646;2022-08-27T01:01:48;12.03;;;10.83;;
10641;SDS011;5369;49.586;8.646;2022-08-27T01:04:34;13.33;;;11.57;;
10641;SDS011;5369;49.586;8.646;2022-08-27T01:07:01;11.87;;;10.70;;
10641;SDS011;5369;49.586;8.646;2022-08-27T01:09:27;12.43;;;11.23;;
10641;SDS011;5369;49.586;8.646;2022-08-27T01:11:54;13.43;;;10.63;;
10641;SDS011;5369;49.586;8.646;2022-08-27T01:14:22;12.03;;;10.80;;
10641;SDS011;5369;49.586;8.646;2022-08-27T01:16:49;12.13;;;10.63;;
10641;SDS011;5369;49.586;8.646;2022-08-27T01:19:22;11.70;;;10.50;;
10641;SDS011;5369;49.586;8.646;2022-08-27T01:27:00;11.80;;;10.60;;
10641;SDS011;5369;49.586;8.646;2022-08-27T01:29:26;11.73;;;10.63;;
10641;SDS011;5369;49.586;8.646;2022-08-27T01:31:56;12.93;;;10.53;;
10641;SDS011;5369;49.586;8.646;2022-08-27T01:34:22;11.73;;;10.20;;
10641;SDS011;5369;49.586;8.646;2022-08-27T01:36:48;11.23;;;10.07;;
10641;SDS011;5369;49.586;8.646;2022-08-27T01:39:14;11.00;;;9.80;;
10641;SDS011;5369;49.586;8.646;2022-08-27T01:41:40;10.77;;;9.77;;
10641;SDS011;5369;49.586;8.646;2022-08-27T01:44:06;12.00;;;10.70;;
10641;SDS011;5369;49.586;8.646;2022-08-27T01:46:33;11.60;;;10.03;;
10641;SDS011;5369;49.586;8.646;2022-08-27T01:49:00;11.60;;;10.40;;
10641;SDS011;5369;49.586;8.646;2022-08-27T01:51:26;10.60;;;9.60;;
10641;SDS011;5369;49.586;8.646;2022-08-27T01:53:52;10.17;;;9.17;;
10641;SDS011;5369;49.586;8.646;2022-08-27T01:56:19;11.00;;;8.90;;
10641;SDS011;5369;49.586;8.646;2022-08-27T01:58:45;10.03;;;9.13;;
10641;SDS011;5369;49.586;8.646;2022-08-27T02:01:11;9.93;;;9.03;;
10641;SDS011;5369;49.586;8.646;2022-08-27T02:03:41;9.33;;;8.40;;
10641;SDS011;5369;49.586;8.646;2022-08-27T02:06:08;14.40;;;11.63;;
10641;SDS011;5369;49.586;8.646;2022-08-27T02:08:34;12.13;;;10.93;;
10641;SDS011;5369;49.586;8.646;2022-08-27T02:11:01;14.00;;;11.87;;
10641;SDS011;5369;49.586;8.646;2022-08-27T02:13:27;13.80;;;12.50;;
10641;SDS011;5369;49.586;8.646;2022-08-27T02:15:54;12.83;;;11.50;;
10641;SDS011;5369;49.586;8.646;2022-08-27T02:18:20;13.00;;;11.73;;
10641;SDS011;5369;49.586;8.646;2022-08-27T02:20:47;13.23;;;11.93;;
10641;SDS011;5369;49.586;8.646;2022-08-27T02:23:14;12.33;;;11.03;;
10641;SDS011;5369;49.586;8.646;2022-08-27T02:25:41;13.57;;;11.13;;
10641;SDS011;5369;49.586;8.646;2022-08-27T02:28:07;13.33;;;12.00;;
10641;SDS011;5369;49.586;8.646;2022-08-27T02:30:34;14.30;;;11.40;;
10641;SDS011;5369;49.586;8.646;2022-08-27T02:33:01;13.77;;;11.53;;
10641;SDS011;5369;49.586;8.646;2022-08-27T02:35:29;12.60;;;11.30;;
10641;SDS011;5369;49.586;8.646;2022-08-27T02:37:56;11.87;;;10.77;;
10641;SDS011;5369;49.586;8.646;2022-08-27T02:40:22;14.27;;;11.10;;
10641;SDS011;5369;49.586;8.646;2022-08-27T02:42:49;11.30;;;10.17;;
10641;SDS011;5369;49.586;8.646;2022-08-27T02:45:15;14.43;;;11.60;;
10641;SDS011;5369;49.586;8.646;2022-08-27T02:47:42;11.33;;;10.17;;
10641;SDS011;5369;49.586;8.646;2022-08-27T02:50:09;10.93;;;9.80;;
10641;SDS011;5369;49.586;8.646;2022-08-27T02:52:35;12.43;;;9.33;;
10641;SDS011;5369;49.586;8.646;2022-08-27T02:55:01;10.27;;;9.07;;
10641;SDS011;5369;49.586;8.646;2022-08-27T02:57:27;9.60;;;8.57;;
10641;SDS011;5369;49.586;8.646;2022-08-27T02:59:55;11.10;;;8.60;;
10641;SDS011;5369;49.586;8.646;2022-08-27T03:02:22;9.90;;;8.67;;
10641;SDS011;5369;49.586;8.646;2022-08-27T03:04:49;10.03;;;9.00;;
10641;SDS011;5369;49.586;8.646;2022-08-27T03:07:15;10.47;;;8.60;;
10641;SDS011;5369;49.586;8.646;2022-08-27T03:09:41;9.70;;;8.50;;
10641;SDS011;5369;49.586;8.646;2022-08-27T03:12:07;10.70;;;9.27;;
10641;SDS011;5369;49.586;8.646;2022-08-27T03:14:33;13.70;;;10.50;;
10641;SDS011;5369;49.586;8.646;2022-08-27T03:17:00;10.17;;;9.27;;
10641;SDS011;5369;49.586;8.646;2022-08-27T03:19:46;10.97;;;9.87;;
10641;SDS011;5369;49.586;8.646;2022-08-27T03:22:12;11.63;;;10.33;;
10641;SDS011;5369;49.586;8.646;2022-08-27T03:24:39;10.43;;;9.53;;
10641;SDS011;5369;49.586;8.646;2022-08-27T03:27:06;10.73;;;9.73;;
10641;SDS011;5369;49.586;8.646;2022-08-27T03:29:32;10.77;;;9.27;;
10641;SDS011;5369;49.586;8.646;2022-08-27T03:31:59;13.27;;;10.30;;
10641;SDS011;5369;49.586;8.646;2022-08-27T03:34:25;10.33;;;9.33;;
10641;SDS011;5369;49.586;8.646;2022-08-27T03:36:51;11.33;;;9.93;;
10641;SDS011;5369;49.586;8.646;2022-08-27T03:39:18;11.40;;;10.27;;
10641;SDS011;5369;49.586;8.646;2022-08-27T03:41:44;12.83;;;10.83;;
10641;SDS011;5369;49.586;8.646;2022-08-27T03:44:10;10.90;;;9.90;;
10641;SDS011;5369;49.586;8.646;2022-08-27T03:46:36;11.83;;;10.70;;
10641;SDS011;5369;49.586;8.646;2022-08-27T03:49:03;11.33;;;10.20;;
10641;SDS011;5369;49.586;8.646;2022-08-27T03:51:29;11.90;;;10.70;;
10641;SDS011;5369;49.586;8.646;2022-08-27T03:53:55;12.00;;;10.80;;
10641;SDS011;5369;49.586;8.646;2022-08-27T03:56:21;13.43;;;11.10;;
10641;SDS011;5369;49.586;8.646;2022-08-27T03:58:48;12.77;;;11.10;;
10641;SDS011;5369;49.586;8.646;2022-08-27T04:01:14;11.03;;;10.03;;
10641;SDS011;5369;49.586;8.646;2022-08-27T04:03:41;12.37;;;11.17;;
10641;SDS011;5369;49.586;8.646;2022-08-27T04:06:08;12.40;;;11.03;;
10641;SDS011;5369;49.586;8.646;2022-08-27T04:08:34;15.77;;;10.57;;
10641;SDS011;5369;49.586;8.646;2022-08-27T04:11:04;13.37;;;10.33;;
10641;SDS011;5369;49.586;8.646;2022-08-27T04:13:30;11.97;;;10.77;;
10641;SDS011;5369;49.586;8.646;2022-08-27T04:15:56;11.47;;;10.27;;
10641;SDS011;5369;49.586;8.646;2022-08-27T04:18:22;12.17;;;10.83;;
10641;SDS011;5369;49.586;8.646;2022-08-27T04:20:49;14.17;;;10.60;;
10641;SDS011;5369;49.586;8.646;2022-08-27T04:23:16;13.33;;;11.40;;
10641;SDS011;5369;49.586;8.646;2022-08-27T04:25:43;11.93;;;10.10;;
10641;SDS011;5369;49.586;8.646;2022-08-27T04:28:10;10.93;;;9.87;;
10641;SDS011;5369;49.586;8.646;2022-08-27T04:30:40;11.30;;;10.10;;
10641;SDS011;5369;49.586;8.646;2022-08-27T04:33:07;14.40;;;10.93;;
10641;SDS011;5369;49.586;8.646;2022-08-27T04:35:33;10.17;;;9.17;;
10641;SDS011;5369;49.586;8.646;2022-08-27T04:37:59;12.17;;;9.70;;
10641;SDS011;5369;49.586;8.646;2022-08-27T04:40:25;11.97;;;9.63;;
10641;SDS011;5369;49.586;8.646;2022-08-27T04:43:12;10.20;;;9.20;;
10641;SDS011;5369;49.586;8.646;2022-08-27T04:45:43;10.60;;;9.50;;
10641;SDS011;5369;49.586;8.646;2022-08-27T04:48:10;11.40;;;9.70;;
10641;SDS011;5369;49.586;8.646;2022-08-27T04:50:40;10.77;;;9.23;;
10641;SDS011;5369;49.586;8.646;2022-08-27T04:53:07;10.73;;;8.77;;
10641;SDS011;5369;49.586;8.646;2022-08-27T04:55:39;10.37;;;9.10;;
10641;SDS011;5369;49.586;8.646;2022-08-27T04:58:05;10.10;;;7.90;;
10641;SDS011;5369;49.586;8.646;2022-08-27T05:00:32;9.67;;;8.73;;
10641;SDS011;5369;49.586;8.646;2022-08-27T05:02:58;11.23;;;8.40;;
10641;SDS011;5369;49.586;8.646;2022-08-27T05:05:27;9.87;;;8.87;;
10641;SDS011;5369;49.586;8.646;2022-08-27T05:07:53;11.10;;;9.23;;
10641;SDS011;5369;49.586;8.646;2022-08-27T05:10:19;10.33;;;8.53;;
10641;SDS011;5369;49.586;8.646;2022-08-27T05:12:45;9.27;;;8.20;;
10641;SDS011;5369;49.586;8.646;2022-08-27T05:15:13;11.57;;;8.50;;
10641;SDS011;5369;49.586;8.646;2022-08-27T05:17:39;11.57;;;9.73;;
10641;SDS011;5369;49.586;8.646;2022-08-27T05:20:06;9.53;;;8.50;;
10641;SDS011;5369;49.586;8.646;2022-08-27T05:22:34;9.67;;;8.67;;
10641;SDS011;5369;49.586;8.646;2022-08-27T05:25:00;11.30;;;8.50;;
10641;SDS011;5369;49.586;8.646;2022-08-27T05:27:26;11.30;;;8.43;;
10641;SDS011;5369;49.586;8.646;2022-08-27T05:29:52;10.60;;;9.43;;
10641;SDS011;5369;49.586;8.646;2022-08-27T05:32:19;10.40;;;9.20;;
10641;SDS011;5369;49.586;8.646;2022-08-27T05:34:45;9.53;;;8.53;;
10641;SDS011;5369;49.586;8.646;2022-08-27T05:37:12;9.20;;;8.40;;
10641;SDS011;5369;49.586;8.646;2022-08-27T05:39:38;11.27;;;8.40;;
10641;SDS011;5369;49.586;8.646;2022-08-27T05:42:04;11.17;;;8.63;;
10641;SDS011;5369;49.586;8.646;2022-08-27T05:44:31;14.33;;;8.60;;
10641;SDS011;5369;49.586;8.646;2022-08-27T05:46:57;10.47;;;8.40;;
10641;SDS011;5369;49.586;8.646;2022-08-27T05:49:23;9.90;;;8.90;;
10641;SDS011;5369;49.586;8.646;2022-08-27T05:51:50;11.10;;;8.40;;
10641;SDS011;5369;49.586;8.646;2022-08-27T05:54:16;10.47;;;9.07;;
10641;SDS011;5369;49.586;8.646;2022-08-27T05:56:46;10.07;;;8.47;;
10641;SDS011;5369;49.586;8.646;2022-08-27T05:59:13;12.50;;;9.50;;
10641;SDS011;5369;49.586;8.646;2022-08-27T06:01:58;11.80;;;9.17;;
10641;SDS011;5369;49.586;8.646;2022-08-27T06:04:24;11.80;;;8.67;;
10641;SDS011;5369;49.586;8.646;2022-08-27T06:06:51;9.90;;;8.10;;
10641;SDS011;5369;49.586;8.646;2022-08-27T06:09:19;11.30;;;8.90;;
10641;SDS011;5369;49.586;8.646;2022-08-27T06:11:45;11.97;;;8.37;;
10641;SDS011;5369;49.586;8.646;2022-08-27T06:14:12;9.70;;;8.00;;
10641;SDS011;5369;49.586;8.646;2022-08-27T06:16:38;16.33;;;10.13;;
10641;SDS011;5369;49.586;8.646;2022-08-27T06:19:05;13.60;;;9.47;;
10641;SDS011;5369;49.586;8.646;2022-08-27T06:21:32;11.87;;;9.03;;
10641;SDS011;5369;49.586;8.646;2022-08-27T06:23:58;13.13;;;9.93;;
10641;SDS011;5369;49.586;8.646;2022-08-27T06:26:25;13.30;;;10.30;;
10641;SDS011;5369;49.586;8.646;2022-08-27T06:28:51;10.80;;;9.13;;
10641;SDS011;5369;49.586;8.646;2022-08-27T06:31:19;12.77;;;10.00;;
10641;SDS011;5369;49.586;8.646;2022-08-27T06:33:47;12.00;;;9.63;;
10641;SDS011;5369;49.586;8.646;2022-08-27T06:36:15;10.30;;;8.70;;
10641;SDS011;5369;49.586;8.646;2022-08-27T06:38:42;11.87;;;8.40;;
10641;SDS011;5369;49.586;8.646;2022-08-27T06:41:08;10.57;;;8.60;;
10641;SDS011;5369;49.586;8.646;2022-08-27T06:43:35;11.37;;;9.77;;
10641;SDS011;5369;49.586;8.646;2022-08-27T06:46:03;10.30;;;9.30;;
10641;SDS011;5369;49.586;8.646;2022-08-27T06:48:29;11.07;;;9.93;;
10641;SDS011;5369;49.586;8.646;2022-08-27T06:50:56;12.20;;;9.40;;
10641;SDS011;5369;49.586;8.646;2022-08-27T06:53:22;10.40;;;8.67;;
10641;SDS011;5369;49.586;8.646;2022-08-27T06:55:48;9.00;;;8.10;;
10641;SDS011;5369;49.586;8.646;2022-08-27T06:58:15;12.63;;;8.67;;
10641;SDS011;5369;49.586;8.646;2022-08-27T07:00:41;14.03;;;9.50;;
10641;SDS011;5369;49.586;8.646;2022-08-27T07:03:08;11.33;;;9.10;;
10641;SDS011;5369;49.586;8.646;2022-08-27T07:05:35;10.03;;;9.00;;
10641;SDS011;5369;49.586;8.646;2022-08-27T07:08:02;11.03;;;9.43;;
10641;SDS011;5369;49.586;8.646;2022-08-27T07:10:28;12.57;;;9.40;;
10641;SDS011;5369;49.586;8.646;2022-08-27T07:12:55;14.73;;;9.67;;
10641;SDS011;5369;49.586;8.646;2022-08-27T07:15:21;11.07;;;8.70;;
10641;SDS011;5369;49.586;8.646;2022-08-27T07:17:47;13.83;;;10.13;;
10641;SDS011;5369;49.586;8.646;2022-08-27T07:20:14;13.90;;;8.90;;
10641;SDS011;5369;49.586;8.646;2022-08-27T07:22:41;12.03;;;9.93;;
10641;SDS011;5369;49.586;8.646;2022-08-27T07:25:08;10.30;;;8.93;;
10641;SDS011;5369;49.586;8.646;2022-08-27T07:27:36;12.20;;;9.00;;
10641;SDS011;5369;49.586;8.646;2022-08-27T07:30:04;12.33;;;9.70;;
10641;SDS011;5369;49.586;8.646;2022-08-27T07:32:30;10.93;;;9.50;;
10641;SDS011;5369;49.586;8.646;2022-08-27T07:34:56;12.00;;;9.70;;
10641;SDS011;5369;49.586;8.646;2022-08-27T07:37:22;11.83;;;10.20;;
10641;SDS011;5369;49.586;8.646;2022-08-27T07:39:48;16.50;;;11.00;;
10641;SDS011;5369;49.586;8.646;2022-08-27T07:42:14;12.50;;;9.47;;
10641;SDS011;5369;49.586;8.646;2022-08-27T07:44:59;10.03;;;9.00;;
10641;SDS011;5369;49.586;8.646;2022-08-27T07:47:25;12.27;;;9.73;;
10641;SDS011;5369;49.586;8.646;2022-08-27T07:49:51;13.97;;;10.03;;
10641;SDS011;5369;49.586;8.646;2022-08-27T07:52:17;10.33;;;8.80;;
10641;SDS011;5369;49.586;8.646;2022-08-27T07:54:44;11.23;;;9.37;;
10641;SDS011;5369;49.586;8.646;2022-08-27T07:57:10;11.27;;;10.13;;
10641;SDS011;5369;49.586;8.646;2022-08-27T07:59:36;14.10;;;10.80;;
10641;SDS011;5369;49.586;8.646;2022-08-27T08:02:02;14.60;;;10.27;;
10641;SDS011;5369;49.586;8.646;2022-08-27T08:04:29;12.40;;;9.90;;
10641;SDS011;5369;49.586;8.646;2022-08-27T08:06:55;11.90;;;10.27;;
10641;SDS011;5369;49.586;8.646;2022-08-27T08:09:21;11.17;;;9.50;;
10641;SDS011;5369;49.586;8.646;2022-08-27T08:11:49;14.10;;;10.40;;
10641;SDS011;5369;49.586;8.646;2022-08-27T08:14:16;17.43;;;9.60;;
10641;SDS011;5369;49.586;8.646;2022-08-27T08:16:42;14.63;;;9.20;;
10641;SDS011;5369;49.586;8.646;2022-08-27T08:19:08;13.07;;;9.77;;
10641;SDS011;5369;49.586;8.646;2022-08-27T08:21:34;13.37;;;9.83;;
10641;SDS011;5369;49.586;8.646;2022-08-27T08:24:02;11.10;;;9.37;;
10641;SDS011;5369;49.586;8.646;2022-08-27T08:26:28;12.23;;;9.27;;
10641;SDS011;5369;49.586;8.646;2022-08-27T08:28:54;10.27;;;9.10;;
10641;SDS011;5369;49.586;8.646;2022-08-27T08:31:20;9.80;;;8.80;;
10641;SDS011;5369;49.586;8.646;2022-08-27T08:33:48;10.20;;;8.80;;
10641;SDS011;5369;49.586;8.646;2022-08-27T08:36:14;11.83;;;8.80;;
10641;SDS011;5369;49.586;8.646;2022-08-27T08:38:42;10.80;;;9.07;;
10641;SDS011;5369;49.586;8.646;2022-08-27T08:43:53;9.97;;;8.60;;
10641;SDS011;5369;49.586;8.646;2022-08-27T08:46:26;11.10;;;7.90;;
10641;SDS011;5369;49.586;8.646;2022-08-27T08:48:54;9.13;;;7.83;;
10641;SDS011;5369;49.586;8.646;2022-08-27T08:51:24;10.70;;;8.20;;
10641;SDS011;5369;49.586;8.646;2022-08-27T08:56:23;9.53;;;7.70;;
10641;SDS011;5369;49.586;8.646;2022-08-27T08:58:51;12.40;;;8.63;;
10641;SDS011;5369;49.586;8.646;2022-08-27T09:01:21;9.30;;;7.83;;
10641;SDS011;5369;49.586;8.646;2022-08-27T09:03:51;10.60;;;8.13;;
10641;SDS011;5369;49.586;8.646;2022-08-27T09:09:02;9.17;;;7.70;;
10641;SDS011;5369;49.586;8.646;2022-08-27T09:11:34;11.90;;;8.40;;
10641;SDS011;5369;49.586;8.646;2022-08-27T09:16:45;9.13;;;6.90;;
10641;SDS011;5369;49.586;8.646;2022-08-27T09:19:11;10.10;;;7.60;;
10641;SDS011;5369;49.586;8.646;2022-08-27T09:26:42;10.33;;;7.80;;
10641;SDS011;5369;49.586;8.646;2022-08-27T09:29:11;12.83;;;8.27;;
10641;SDS011;5369;49.586;8.646;2022-08-27T09:31:41;8.87;;;7.87;;
10641;SDS011;5369;49.586;8.646;2022-08-27T09:34:08;8.77;;;7.60;;
10641;SDS011;5369;49.586;8.646;2022-08-27T09:36:44;10.17;;;6.87;;
10641;SDS011;5369;49.586;8.646;2022-08-27T09:39:11;12.33;;;7.93;;
10641;SDS011;5369;49.586;8.646;2022-08-27T09:41:42;8.47;;;7.40;;
10641;SDS011;5369;49.586;8.646;2022-08-27T09:44:11;8.70;;;7.60;;
10641;SDS011;5369;49.586;8.646;2022-08-27T09:46:38;7.63;;;6.83;;
10641;SDS011;5369;49.586;8.646;2022-08-27T09:49:14;9.80;;;8.00;;
10641;SDS011;5369;49.586;8.646;2022-08-27T09:51:41;9.43;;;8.40;;
10641;SDS011;5369;49.586;8.646;2022-08-27T09:54:08;9.07;;;7.40;;
10641;SDS011;5369;49.586;8.646;2022-08-27T09:56:36;9.90;;;7.23;;
10641;SDS011;5369;49.586;8.646;2022-08-27T10:02:02;10.70;;;7.70;;
10641;SDS011;5369;49.586;8.646;2022-08-27T10:04:26;10.53;;;7.17;;
10641;SDS011;5369;49.586;8.646;2022-08-27T10:06:52;8.60;;;7.10;;
10641;SDS011;5369;49.586;8.646;2022-08-27T10:09:21;8.33;;;6.93;;
10641;SDS011;5369;49.586;8.646;2022-08-27T10:12:05;11.93;;;7.53;;
10641;SDS011;5369;49.586;8.646;2022-08-27T10:14:52;9.57;;;7.20;;
10641;SDS011;5369;49.586;8.646;2022-08-27T10:19:46;9.00;;;6.80;;
10641;SDS011;5369;49.586;8.646;2022-08-27T10:30:05;9.57;;;7.20;;
10641;SDS011;5369;49.586;8.646;2022-08-27T10:35:06;8.07;;;6.43;;
10641;SDS011;5369;49.586;8.646;2022-08-27T10:37:43;10.80;;;7.67;;
10641;SDS011;5369;49.586;8.646;2022-08-27T10:43:01;9.70;;;6.83;;
10641;SDS011;5369;49.586;8.646;2022-08-27T10:45:35;7.80;;;6.13;;
10641;SDS011;5369;49.586;8.646;2022-08-27T10:48:26;8.27;;;6.67;;
10641;SDS011;5369;49.586;8.646;2022-08-27T10:56:12;7.30;;;6.57;;
10641;SDS011;5369;49.586;8.646;2022-08-27T11:01:23;8.30;;;6.40;;
10641;SDS011;5369;49.586;8.646;2022-08-27T11:03:52;7.30;;;6.60;;
10641;SDS011;5369;49.586;8.646;2022-08-27T11:06:28;6.77;;;6.07;;
10641;SDS011;5369;49.586;8.646;2022-08-27T11:08:57;6.60;;;5.93;;
10641;SDS011;5369;49.586;8.646;2022-08-27T11:14:28;7.40;;;6.30;;
10641;SDS011;5369;49.586;8.646;2022-08-27T11:16:57;7.80;;;6.77;;
10641;SDS011;5369;49.586;8.646;2022-08-27T11:19:35;7.37;;;6.10;;
10641;SDS011;5369;49.586;8.646;2022-08-27T11:24:34;6.87;;;6.17;;
10641;SDS011;5369;49.586;8.646;2022-08-27T11:27:02;8.17;;;6.83;;
10641;SDS011;5369;49.586;8.646;2022-08-27T11:29:31;7.47;;;6.73;;
10641;SDS011;5369;49.586;8.646;2022-08-27T11:32:02;7.53;;;6.00;;
10641;SDS011;5369;49.586;8.646;2022-08-27T11:34:35;7.10;;;6.37;;
10641;SDS011;5369;49.586;8.646;2022-08-27T11:42:09;7.10;;;6.40;;
10641;SDS011;5369;49.586;8.646;2022-08-27T11:44:40;7.03;;;6.03;;
10641;SDS011;5369;49.586;8.646;2022-08-27T11:47:14;7.13;;;6.53;;
10641;SDS011;5369;49.586;8.646;2022-08-27T11:52:10;6.80;;;6.20;;
10641;SDS011;5369;49.586;8.646;2022-08-27T11:54:47;7.47;;;6.43;;
10641;SDS011;5369;49.586;8.646;2022-08-27T11:57:33;7.33;;;6.40;;
10641;SDS011;5369;49.586;8.646;2022-08-27T12:02:43;8.50;;;6.60;;
10641;SDS011;5369;49.586;8.646;2022-08-27T12:05:19;8.43;;;6.90;;
10641;SDS011;5369;49.586;8.646;2022-08-27T12:07:48;9.43;;;6.70;;
10641;SDS011;5369;49.586;8.646;2022-08-27T12:18:31;8.43;;;6.50;;
10641;SDS011;5369;49.586;8.646;2022-08-27T12:28:39;7.17;;;5.87;;
10641;SDS011;5369;49.586;8.646;2022-08-27T12:31:05;7.63;;;6.03;;
10641;SDS011;5369;49.586;8.646;2022-08-27T12:33:34;7.93;;;6.30;;
10641;SDS011;5369;49.586;8.646;2022-08-27T12:36:05;6.77;;;6.13;;
10641;SDS011;5369;49.586;8.646;2022-08-27T12:38:43;7.40;;;6.50;;
10641;SDS011;5369;49.586;8.646;2022-08-27T12:41:12;7.47;;;5.93;;
10641;SDS011;5369;49.586;8.646;2022-08-27T12:43:49;7.80;;;6.00;;
10641;SDS011;5369;49.586;8.646;2022-08-27T12:46:26;6.57;;;5.93;;
10641;SDS011;5369;49.586;8.646;2022-08-27T12:49:02;6.90;;;6.20;;
10641;SDS011;5369;49.586;8.646;2022-08-27T12:51:32;6.60;;;6.00;;
10641;SDS011;5369;49.586;8.646;2022-08-27T13:04:18;7.07;;;6.30;;
10641;SDS011;5369;49.586;8.646;2022-08-27T13:06:45;6.80;;;6.10;;
10641;SDS011;5369;49.586;8.646;2022-08-27T13:09:11;7.30;;;6.60;;
10641;SDS011;5369;49.586;8.646;2022-08-27T13:11:47;7.07;;;6.40;;
10641;SDS011;5369;49.586;8.646;2022-08-27T13:14:19;7.37;;;6.60;;
10641;SDS011;5369;49.586;8.646;2022-08-27T13:16:53;6.90;;;6.30;;
10641;SDS011;5369;49.586;8.646;2022-08-27T13:19:26;7.43;;;6.17;;
10641;SDS011;5369;49.586;8.646;2022-08-27T13:21:53;9.43;;;6.40;;
10641;SDS011;5369;49.586;8.646;2022-08-27T13:24:25;8.40;;;6.27;;
10641;SDS011;5369;49.586;8.646;2022-08-27T13:26:52;7.73;;;6.30;;
10641;SDS011;5369;49.586;8.646;2022-08-27T13:29:18;6.87;;;6.10;;
10641;SDS011;5369;49.586;8.646;2022-08-27T13:31:45;7.53;;;6.17;;
10641;SDS011;5369;49.586;8.646;2022-08-27T13:34:14;6.57;;;5.97;;
10641;SDS011;5369;49.586;8.646;2022-08-27T13:36:57;8.77;;;6.33;;
10641;SDS011;5369;49.586;8.646;2022-08-27T13:39:24;6.47;;;5.83;;
10641;SDS011;5369;49.586;8.646;2022-08-27T13:41:51;8.80;;;6.13;;
10641;SDS011;5369;49.586;8.646;2022-08-27T13:44:19;7.80;;;5.87;;
10641;SDS011;5369;49.586;8.646;2022-08-27T13:46:50;6.53;;;5.83;;
10641;SDS011;5369;49.586;8.646;2022-08-27T13:49:19;6.13;;;5.53;;
10641;SDS011;5369;49.586;8.646;2022-08-27T13:51:46;5.77;;;5.27;;
10641;SDS011;5369;49.586;8.646;2022-08-27T13:54:13;8.63;;;5.57;;
10641;SDS011;5369;49.586;8.646;2022-08-27T13:56:53;8.90;;;5.40;;
10641;SDS011;5369;49.586;8.646;2022-08-27T14:04:44;6.37;;;5.73;;
10641;SDS011;5369;49.586;8.646;2022-08-27T14:14:53;7.57;;;5.60;;
10641;SDS011;5369;49.586;8.646;2022-08-27T14:17:21;6.20;;;5.60;;
10641;SDS011;5369;49.586;8.646;2022-08-27T14:19:47;6.33;;;5.77;;
10641;SDS011;5369;49.586;8.646;2022-08-27T14:22:14;7.07;;;5.80;;
10641;SDS011;5369;49.586;8.646;2022-08-27T14:24:40;6.07;;;5.47;;
10641;SDS011;5369;49.586;8.646;2022-08-27T14:27:11;7.03;;;5.17;;
10641;SDS011;5369;49.586;8.646;2022-08-27T14:29:38;8.13;;;5.97;;
10641;SDS011;5369;49.586;8.646;2022-08-27T14:32:04;6.57;;;5.87;;
10641;SDS011;5369;49.586;8.646;2022-08-27T14:34:32;9.77;;;5.90;;
10641;SDS011;5369;49.586;8.646;2022-08-27T14:36:58;7.03;;;6.00;;
10641;SDS011;5369;49.586;8.646;2022-08-27T14:39:25;6.50;;;5.30;;
10641;SDS011;5369;49.586;8.646;2022-08-27T14:41:51;5.90;;;5.40;;
10641;SDS011;5369;49.586;8.646;2022-08-27T14:44:17;6.57;;;5.60;;
10641;SDS011;5369;49.586;8.646;2022-08-27T14:46:43;7.57;;;5.40;;
10641;SDS011;5369;49.586;8.646;2022-08-27T14:49:13;8.47;;;5.53;;
10641;SDS011;5369;49.586;8.646;2022-08-27T14:51:42;5.97;;;5.40;;
10641;SDS011;5369;49.586;8.646;2022-08-27T14:54:10;5.63;;;5.00;;
10641;SDS011;5369;49.586;8.646;2022-08-27T14:56:36;6.27;;;5.60;;
10641;SDS011;5369;49.586;8.646;2022-08-27T14:59:02;5.50;;;5.00;;
10641;SDS011;5369;49.586;8.646;2022-08-27T15:01:29;5.80;;;5.13;;
10641;SDS011;5369;49.586;8.646;2022-08-27T15:03:55;7.13;;;5.60;;
10641;SDS011;5369;49.586;8.646;2022-08-27T15:06:22;5.50;;;5.00;;
10641;SDS011;5369;49.586;8.646;2022-08-27T15:08:50;6.10;;;5.10;;
10641;SDS011;5369;49.586;8.646;2022-08-27T15:11:17;5.10;;;4.70;;
10641;SDS011;5369;49.586;8.646;2022-08-27T15:13:44;6.70;;;5.10;;
10641;SDS011;5369;49.586;8.646;2022-08-27T15:16:14;6.20;;;5.50;;
10641;SDS011;5369;49.586;8.646;2022-08-27T15:18:41;7.23;;;5.37;;
10641;SDS011;5369;49.586;8.646;2022-08-27T15:21:07;6.60;;;5.50;;
10641;SDS011;5369;49.586;8.646;2022-08-27T15:23:34;5.80;;;5.20;;
10641;SDS011;5369;49.586;8.646;2022-08-27T15:26:01;5.87;;;4.90;;
10641;SDS011;5369;49.586;8.646;2022-08-27T15:28:27;5.83;;;5.17;;
10641;SDS011;5369;49.586;8.646;2022-08-27T15:30:53;5.97;;;4.97;;
10641;SDS011;5369;49.586;8.646;2022-08-27T15:33:19;5.57;;;5.07;;
10641;SDS011;5369;49.586;8.646;2022-08-27T15:35:46;5.63;;;4.73;;
10641;SDS011;5369;49.586;8.646;2022-08-27T15:38:12;5.27;;;4.87;;
10641;SDS011;5369;49.586;8.646;2022-08-27T15:40:38;5.87;;;4.80;;
10641;SDS011;5369;49.586;8.646;2022-08-27T15:43:05;5.50;;;5.00;;
10641;SDS011;5369;49.586;8.646;2022-08-27T15:45:32;5.67;;;5.17;;
10641;SDS011;5369;49.586;8.646;2022-08-27T15:47:58;6.23;;;4.80;;
10641;SDS011;5369;49.586;8.646;2022-08-27T15:50:25;6.47;;;5.43;;
10641;SDS011;5369;49.586;8.646;2022-08-27T15:52:54;5.17;;;4.70;;
10641;SDS011;5369;49.586;8.646;2022-08-27T15:55:23;7.13;;;5.30;;
10641;SDS011;5369;49.586;8.646;2022-08-27T15:57:49;5.30;;;4.90;;
10641;SDS011;5369;49.586;8.646;2022-08-27T16:00:16;7.07;;;5.30;;
10641;SDS011;5369;49.586;8.646;2022-08-27T16:02:43;5.67;;;5.17;;
10641;SDS011;5369;49.586;8.646;2022-08-27T16:05:10;6.73;;;5.97;;
10641;SDS011;5369;49.586;8.646;2022-08-27T16:07:36;5.90;;;5.10;;
10641;SDS011;5369;49.586;8.646;2022-08-27T16:10:03;6.13;;;5.53;;
10641;SDS011;5369;49.586;8.646;2022-08-27T16:12:29;5.63;;;5.10;;
10641;SDS011;5369;49.586;8.646;2022-08-27T16:14:55;5.70;;;5.20;;
10641;SDS011;5369;49.586;8.646;2022-08-27T16:17:22;5.90;;;5.17;;
10641;SDS011;5369;49.586;8.646;2022-08-27T16:19:50;6.00;;;5.37;;
10641;SDS011;5369;49.586;8.646;2022-08-27T16:22:17;6.10;;;5.50;;
10641;SDS011;5369;49.586;8.646;2022-08-27T16:24:44;5.93;;;5.40;;
10641;SDS011;5369;49.586;8.646;2022-08-27T16:27:10;8.50;;;5.37;;
10641;SDS011;5369;49.586;8.646;2022-08-27T16:29:36;6.33;;;5.40;;
10641;SDS011;5369;49.586;8.646;2022-08-27T16:32:03;5.63;;;5.13;;
10641;SDS011;5369;49.586;8.646;2022-08-27T16:34:29;10.20;;;5.70;;
10641;SDS011;5369;49.586;8.646;2022-08-27T16:36:56;6.60;;;4.93;;